createdAt,value
2022-08-03T00:01:26.124Z,26.61
2022-08-03T00:06:28.406Z,26.59
2022-08-03T00:11:30.241Z,26.47
2022-08-03T00:16:32.523Z,26.36
2022-08-03T00:21:34.510Z,26.26
2022-08-03T00:26:36.648Z,26.25
2022-08-03T00:31:45.004Z,26.15
2022-08-03T00:36:54.828Z,26.21
2022-08-03T00:41:56.666Z,26.08
2022-08-03T00:46:58.566Z,25.98
2022-08-03T00:52:09.573Z,25.87
2022-08-03T00:57:11.722Z,25.83
2022-08-03T01:02:13.979Z,25.81
2022-08-03T01:12:33.346Z,25.98
2022-08-03T01:17:55.495Z,26.09
2022-08-03T01:23:16.157Z,26.09
2022-08-03T01:28:40.027Z,26.00
2022-08-03T01:33:47.708Z,25.97
2022-08-03T01:38:56.662Z,25.90
2022-08-03T01:44:30.279Z,26.03
2022-08-03T01:49:22.751Z,26.04
2022-08-03T01:54:25.430Z,25.95
2022-08-03T01:59:28.125Z,25.92
2022-08-03T02:04:30.927Z,25.79
2022-08-03T02:09:37.869Z,25.66
2022-08-03T02:14:41.319Z,25.52
2022-08-03T02:19:43.779Z,25.39
2022-08-03T02:24:45.782Z,25.16
2022-08-03T02:30:02.596Z,25.10
2022-08-03T02:35:06.897Z,25.04
2022-08-03T02:40:10.372Z,25.02
2022-08-03T02:45:15.788Z,25.01
2022-08-03T02:50:19.395Z,24.99
2022-08-03T02:55:23.028Z,24.95
2022-08-03T03:00:27.425Z,24.95
2022-08-03T03:05:55.413Z,24.92
2022-08-03T03:10:55.567Z,24.83
2022-08-03T03:16:01.590Z,24.84
2022-08-03T03:21:04.486Z,24.83
2022-08-03T03:26:06.955Z,24.83
2022-08-03T03:31:09.836Z,24.76
2022-08-03T03:36:11.659Z,24.76
2022-08-03T03:41:13.555Z,24.69
2022-08-03T03:46:15.648Z,24.63
2022-08-03T03:51:17.862Z,24.58
2022-08-03T03:56:19.968Z,24.55
2022-08-03T04:01:22.582Z,24.52
2022-08-03T04:06:43.456Z,24.47
2022-08-03T04:11:55.613Z,24.38
2022-08-03T04:17:00.171Z,24.31
2022-08-03T04:22:05.615Z,24.27
2022-08-03T04:27:10.124Z,24.20
2022-08-03T04:32:14.386Z,24.15
2022-08-03T04:37:25.575Z,24.11
2022-08-03T04:42:27.989Z,24.11
2022-08-03T04:47:32.853Z,24.08
2022-08-03T04:52:35.236Z,24.02
2022-08-03T04:57:37.891Z,23.98
2022-08-03T05:02:39.839Z,23.90
2022-08-03T05:07:42.699Z,23.94
2022-08-03T05:12:46.161Z,24.01
2022-08-03T05:17:49.249Z,23.97
2022-08-03T05:22:51.053Z,23.98
2022-08-03T05:27:53.011Z,23.87
2022-08-03T05:32:54.907Z,23.84
2022-08-03T05:37:56.819Z,23.74
2022-08-03T05:42:59.226Z,23.78
2022-08-03T05:48:01.229Z,23.74
2022-08-03T05:53:03.236Z,23.74
2022-08-03T05:58:05.650Z,23.82
2022-08-03T06:03:07.503Z,23.88
2022-08-03T06:08:09.426Z,23.99
2022-08-03T06:13:17.458Z,24.04
2022-08-03T06:18:19.514Z,24.12
2022-08-03T06:23:21.384Z,24.17
2022-08-03T06:28:52.869Z,24.22
2022-08-03T06:34:22.907Z,24.34
2022-08-03T06:39:08.169Z,24.36
2022-08-03T06:44:10.464Z,24.54
2022-08-03T06:49:13.065Z,24.66
2022-08-03T06:54:14.987Z,24.78
2022-08-03T07:00:10.363Z,24.86
2022-08-03T07:04:38.976Z,25.02
2022-08-03T07:09:41.721Z,25.08
2022-08-03T07:14:43.628Z,25.16
2022-08-03T07:19:45.729Z,25.23
2022-08-03T07:24:47.936Z,25.35
2022-08-03T07:29:49.917Z,25.49
2022-08-03T07:34:53.118Z,25.63
2022-08-03T07:39:58.310Z,25.79
2022-08-03T07:45:00.257Z,25.94
2022-08-03T07:50:02.237Z,26.21
2022-08-03T07:55:06.659Z,26.25
2022-08-03T08:00:18.261Z,26.53
2022-08-03T08:05:20.209Z,26.63
2022-08-03T08:10:22.192Z,26.76
2022-08-03T08:15:24.487Z,27.01
2022-08-03T08:20:32.140Z,27.31
2022-08-03T08:25:34.501Z,27.62
2022-08-03T08:30:36.708Z,27.95
2022-08-03T08:35:38.937Z,28.31
2022-08-03T08:40:40.977Z,28.71
2022-08-03T08:45:42.991Z,29.14
2022-08-03T08:50:45.094Z,29.83
2022-08-03T08:55:58.492Z,30.76
2022-08-03T09:01:02.338Z,31.95
2022-08-03T09:06:04.632Z,32.71
2022-08-03T09:11:07.726Z,33.10
2022-08-03T09:16:20.084Z,33.62
2022-08-03T09:21:34.542Z,33.94
2022-08-03T09:26:37.698Z,34.92
2022-08-03T09:31:45.829Z,35.10
2022-08-03T09:36:51.645Z,35.67
2022-08-03T09:42:29.026Z,35.92
2022-08-03T09:47:44.943Z,36.17
2022-08-03T09:52:52.175Z,36.18
2022-08-03T09:58:05.267Z,36.74
2022-08-03T10:03:07.204Z,37.39
2022-08-03T10:08:15.950Z,36.83
2022-08-03T10:13:19.262Z,37.40
2022-08-03T10:18:21.119Z,37.61
2022-08-03T10:23:23.220Z,38.22
2022-08-03T10:28:25.320Z,37.82
2022-08-03T10:33:50.906Z,37.99
2022-08-03T10:38:55.279Z,38.11
2022-08-03T10:44:03.687Z,38.41
2022-08-03T10:49:06.563Z,38.21
2022-08-03T10:54:37.476Z,39.21
2022-08-03T10:59:45.510Z,38.69
2022-08-03T11:04:47.436Z,38.92
2022-08-03T11:09:56.430Z,39.14
2022-08-03T11:15:00.701Z,38.77
2022-08-03T11:20:05.678Z,38.99
2022-08-03T11:25:08.131Z,39.79
2022-08-03T11:30:30.349Z,39.68
2022-08-03T11:35:36.810Z,39.62
2022-08-03T11:40:42.294Z,38.80
2022-08-03T11:45:56.477Z,39.38
2022-08-03T11:50:58.511Z,39.04
2022-08-03T11:56:01.743Z,38.81
2022-08-03T12:01:05.275Z,38.47
2022-08-03T12:06:10.316Z,37.83
2022-08-03T12:11:13.855Z,37.43
2022-08-03T12:16:20.657Z,37.19
2022-08-03T12:21:24.819Z,36.73
2022-08-03T12:26:27.300Z,37.25
2022-08-03T12:31:29.424Z,37.23
2022-08-03T12:36:33.779Z,36.98
2022-08-03T12:41:38.133Z,36.83
2022-08-03T12:46:46.915Z,36.57
2022-08-03T12:51:52.258Z,36.63
2022-08-03T12:57:04.284Z,36.58
2022-08-03T13:02:18.264Z,36.69
2022-08-03T13:07:22.588Z,36.47
2022-08-03T13:12:29.932Z,36.29
2022-08-03T13:17:32.205Z,36.12
2022-08-03T13:22:34.791Z,36.09
2022-08-03T13:28:04.149Z,36.23
2022-08-03T13:33:00.634Z,36.33
2022-08-03T13:38:02.682Z,36.25
2022-08-03T13:43:04.691Z,36.09
2022-08-03T13:48:06.632Z,36.60
2022-08-03T13:53:08.572Z,36.64
2022-08-03T13:58:12.529Z,36.26
2022-08-03T14:03:15.091Z,36.31
2022-08-03T14:08:17.333Z,36.35
2022-08-03T14:13:19.265Z,36.24
2022-08-03T14:18:29.291Z,36.26
2022-08-03T14:23:37.809Z,36.50
2022-08-03T14:28:39.841Z,36.17
2022-08-03T14:33:41.741Z,36.14
2022-08-03T14:38:43.743Z,36.56
2022-08-03T14:44:01.168Z,36.61
2022-08-03T14:50:37.086Z,36.58
2022-08-03T14:54:28.818Z,36.68
2022-08-03T14:59:56.820Z,36.79
2022-08-03T15:04:53.105Z,36.75
2022-08-03T15:09:55.119Z,36.42
2022-08-03T15:14:56.928Z,36.65
2022-08-03T15:20:03.860Z,36.69
2022-08-03T15:26:28.246Z,36.53
2022-08-03T15:30:36.195Z,36.63
2022-08-03T15:35:38.132Z,36.58
2022-08-03T15:40:40.145Z,36.58
2022-08-03T15:45:45.441Z,36.33
2022-08-03T15:50:47.471Z,36.28
2022-08-03T15:55:49.360Z,36.34
2022-08-03T16:00:51.185Z,36.44
2022-08-03T16:05:53.330Z,36.56
2022-08-03T16:10:55.240Z,36.56
2022-08-03T16:15:59.789Z,36.63
2022-08-03T16:21:01.738Z,36.56
2022-08-03T16:26:08.731Z,36.43
2022-08-03T16:31:11.143Z,36.35
2022-08-03T16:36:13.108Z,36.17
2022-08-03T16:41:15.130Z,36.16
2022-08-03T16:46:17.021Z,36.38
2022-08-03T16:51:20.829Z,36.41
2022-08-03T16:56:25.470Z,36.24
2022-08-03T17:01:35.780Z,36.05
2022-08-03T17:06:45.074Z,35.93
2022-08-03T17:11:49.466Z,35.91
2022-08-03T17:16:54.336Z,35.84
2022-08-03T17:22:08.636Z,35.92
2022-08-03T17:28:42.222Z,35.81
2022-08-03T17:32:42.364Z,35.60
2022-08-03T17:37:57.656Z,35.81
2022-08-03T17:44:12.957Z,35.71
2022-08-03T17:48:26.333Z,35.73
2022-08-03T17:53:30.776Z,35.52
2022-08-03T17:58:55.181Z,35.35
2022-08-03T18:04:02.824Z,34.99
2022-08-03T18:10:04.287Z,34.86
2022-08-03T18:14:57.339Z,34.78
2022-08-03T18:20:09.897Z,34.66
2022-08-03T18:25:14.821Z,34.75
2022-08-03T18:30:17.938Z,34.56
2022-08-03T18:35:20.231Z,34.44
2022-08-03T18:40:28.360Z,34.38
2022-08-03T18:45:55.703Z,34.01
2022-08-03T18:51:00.273Z,33.80
2022-08-03T18:56:20.821Z,33.66
2022-08-03T19:02:00.743Z,33.53
2022-08-03T19:07:02.507Z,33.28
2022-08-03T19:12:27.250Z,33.12
2022-08-03T19:17:42.969Z,32.94
2022-08-03T19:22:54.561Z,32.42
2022-08-03T19:27:56.496Z,32.44
2022-08-03T19:33:01.163Z,32.43
2022-08-03T19:38:03.503Z,32.23
2022-08-03T19:43:10.246Z,32.14
2022-08-03T19:48:13.716Z,32.00
2022-08-03T19:53:15.857Z,31.90
2022-08-03T19:58:28.350Z,31.85
2022-08-03T20:03:42.990Z,31.77
2022-08-03T20:08:48.230Z,31.64
2022-08-03T20:13:54.679Z,31.54
2022-08-03T20:18:56.976Z,31.45
2022-08-03T20:24:24.255Z,31.34
2022-08-03T20:30:05.274Z,31.23
2022-08-03T20:35:00.750Z,31.11
2022-08-03T20:40:03.451Z,30.99
2022-08-03T20:45:13.949Z,30.74
2022-08-03T20:50:31.563Z,30.70
2022-08-03T20:55:48.138Z,30.52
2022-08-03T21:00:57.698Z,30.34
2022-08-03T21:06:01.646Z,30.21
2022-08-03T21:11:08.036Z,30.01
2022-08-03T21:16:15.020Z,30.01
2022-08-03T21:21:19.261Z,29.90
2022-08-03T21:26:23.631Z,29.72
2022-08-03T21:31:26.702Z,29.58
2022-08-03T21:36:32.885Z,29.53
2022-08-03T21:41:36.305Z,29.39
2022-08-03T21:46:41.012Z,29.41
2022-08-03T21:51:43.063Z,29.27
2022-08-03T21:56:47.585Z,29.05
2022-08-03T22:01:55.250Z,28.97
2022-08-03T22:07:00.840Z,28.87
2022-08-03T22:12:02.928Z,28.97
2022-08-03T22:17:07.272Z,28.73
2022-08-03T22:22:14.060Z,28.69
2022-08-03T22:27:32.383Z,28.71
2022-08-03T22:32:34.745Z,28.46
2022-08-03T22:37:37.394Z,28.30
2022-08-03T22:42:43.030Z,28.25
2022-08-03T22:47:45.372Z,28.23
2022-08-03T22:52:47.506Z,28.26
2022-08-03T22:57:55.494Z,28.19
2022-08-03T23:02:59.340Z,27.89
2022-08-03T23:08:03.981Z,27.80
2022-08-03T23:13:06.567Z,27.71
2022-08-03T23:18:09.495Z,27.54
2022-08-03T23:23:11.556Z,27.42
2022-08-03T23:28:18.484Z,27.44
2022-08-03T23:33:21.329Z,27.67
2022-08-03T23:38:24.873Z,27.76
2022-08-03T23:43:44.969Z,27.76
2022-08-03T23:48:50.355Z,27.84
2022-08-03T23:54:01.479Z,27.84
2022-08-03T23:59:42.725Z,27.87
